Time;durP1;ratioP1;P1;durP2;ratioP2;P2;SDS_P1;SDS_P2;PMS_P1;PMS_P2;Temp;Humidity;BMP_temperature;BMP_pressure;BME280_temperature;BME280_humidity;BME280_pressure;Samples;Min_cycle;Max_cycle;Signal;HPM_P1;HPM_P2
2021/10/20 00:00:30;;;;;;;;;13.75;12.25;;;;;20.40;53.05;100874.44;2091318;28;47671;-49
2021/10/20 00:01:34;;;;;;;;;18.00;17.00;;;;;20.41;53.05;100873.47;2082336;28;47947;-47
2021/10/20 00:02:34;;;;;;;;;15.60;14.80;;;;;20.41;53.34;100868.09;2074423;28;48387;-51
2021/10/20 00:03:34;;;;;;;;;11.25;11.25;;;;;20.40;53.18;100869.06;2082207;28;48083;-45
2021/10/20 00:04:35;;;;;;;;;12.75;12.75;;;;;20.40;53.32;100866.34;2091268;28;47267;-48
2021/10/20 00:05:35;;;;;;;;;15.75;15.75;;;;;20.41;53.53;100872.63;2082192;28;47929;-48
2021/10/20 00:06:36;;;;;;;;;13.50;12.50;;;;;20.41;53.56;100869.94;2082572;28;47881;-47
2021/10/20 00:07:37;;;;;;;;;17.25;16.75;;;;;20.41;53.08;100859.13;2074983;28;47400;-48
2021/10/20 00:08:37;;;;;;;;;12.00;12.00;;;;;20.41;53.23;100864.53;2075253;28;47247;-50
2021/10/20 00:09:38;;;;;;;;;14.75;14.75;;;;;20.40;53.31;100858.28;2090098;28;48550;-50
2021/10/20 00:10:39;;;;;;;;;17.25;14.25;;;;;20.41;53.74;100856.44;2088651;28;47689;-49
2021/10/20 00:11:39;;;;;;;;;14.50;13.75;;;;;20.41;53.53;100859.13;2081112;28;47218;-47
2021/10/20 00:12:41;;;;;;;;;13.50;13.50;;;;;20.41;53.78;100851.91;2078906;28;47236;-51
2021/10/20 00:13:41;;;;;;;;;14.20;13.00;;;;;20.42;53.66;100850.13;2082826;28;45521;-50
2021/10/20 00:14:42;;;;;;;;;12.00;11.00;;;;;20.42;53.59;100850.13;2089415;28;48062;-48
2021/10/20 00:15:42;;;;;;;;;14.50;14.50;;;;;20.42;53.19;100847.44;2086023;28;48376;-46
2021/10/20 00:16:43;;;;;;;;;12.25;11.50;;;;;20.41;53.34;100846.53;2083169;28;47103;-47
2021/10/20 00:17:44;;;;;;;;;11.00;10.00;;;;;20.42;53.83;100844.72;2079466;28;45533;-49
2021/10/20 00:18:48;;;;;;;;;13.25;13.25;;;;;20.41;53.91;100854.63;2082484;28;48282;-49
2021/10/20 00:19:54;;;;;;;;;13.00;11.20;;;;;20.40;53.38;100849.31;2074008;28;46269;-45
2021/10/20 00:20:56;;;;;;;;;14.00;12.60;;;;;20.39;53.46;100844.91;2076299;28;47458;-49
2021/10/20 00:21:57;;;;;;;;;12.80;12.80;;;;;20.39;53.91;100856.53;2076579;28;48474;-51
2021/10/20 00:22:57;;;;;;;;;11.67;11.67;;;;;20.39;53.61;100844.91;2066268;28;45389;-50
2021/10/20 00:23:59;;;;;;;;;12.33;11.33;;;;;20.39;53.71;100847.59;2077464;28;47407;-48
2021/10/20 00:25:00;;;;;;;;;13.20;13.20;;;;;20.39;53.70;100843.06;2082655;28;46324;-47
2021/10/20 00:26:01;;;;;;;;;15.50;14.00;;;;;20.38;53.31;100829.69;2082265;28;48361;-49
2021/10/20 00:27:01;;;;;;;;;12.00;12.00;;;;;20.39;53.48;100831.41;2082839;28;48180;-49
2021/10/20 00:28:02;;;;;;;;;10.00;10.00;;;;;20.39;53.87;100823.31;2082428;28;47084;-48
2021/10/20 00:29:03;;;;;;;;;12.33;12.33;;;;;20.39;53.65;100826.03;2091482;28;48273;-47
2021/10/20 00:30:05;;;;;;;;;15.00;12.00;;;;;20.38;53.39;100822.47;2082152;28;47264;-46
2021/10/20 00:31:06;;;;;;;;;12.80;10.80;;;;;20.39;53.77;100829.59;2082611;28;46942;-50
2021/10/20 00:32:06;;;;;;;;;14.00;13.00;;;;;20.38;54.05;100821.59;2082278;28;47207;-51
2021/10/20 00:33:07;;;;;;;;;11.00;11.00;;;;;20.38;53.85;100824.28;2082301;28;47387;-51
2021/10/20 00:34:07;;;;;;;;;11.33;11.33;;;;;20.38;54.20;100818.91;2091107;28;47303;-51
2021/10/20 00:35:08;;;;;;;;;12.00;11.33;;;;;20.38;53.69;100813.50;2082245;28;45312;-47
2021/10/20 00:36:09;;;;;;;;;9.00;9.00;;;;;20.37;53.85;100818.03;2089088;28;47331;-51
2021/10/20 00:37:10;;;;;;;;;11.75;10.25;;;;;20.37;53.74;100822.56;2086927;28;47416;-48
2021/10/20 00:38:10;;;;;;;;;12.75;12.25;;;;;20.35;53.77;100814.56;2074854;28;48283;-47
2021/10/20 00:39:11;;;;;;;;;9.00;9.00;;;;;20.35;53.83;100814.56;2082086;28;45296;-48
2021/10/20 00:40:12;;;;;;;;;8.00;8.00;;;;;20.35;54.21;100814.56;2086620;28;45369;-50
2021/10/20 00:41:12;;;;;;;;;13.20;12.20;;;;;20.36;54.36;100819.00;2082623;28;47534;-47
2021/10/20 00:42:13;;;;;;;;;9.00;9.00;;;;;20.34;53.77;100822.75;2082979;28;47074;-47
2021/10/20 00:43:13;;;;;;;;;11.33;11.33;;;;;20.35;54.22;100816.41;2093230;28;47134;-48
2021/10/20 00:44:14;;;;;;;;;10.67;10.00;;;;;20.35;54.33;100813.72;2082940;28;48134;-47
2021/10/20 00:45:14;;;;;;;;;13.00;12.00;;;;;20.34;54.29;100818.22;2074268;28;46901;-49
2021/10/20 00:46:25;;;;;;;;;13.33;13.33;;;;;20.34;53.84;100812.84;2072340;28;47109;-48
2021/10/20 00:47:27;;;;;;;;;11.00;11.00;;;;;20.33;54.30;100815.59;2076799;28;47349;-49
2021/10/20 00:48:28;;;;;;;;;8.75;8.75;;;;;20.33;54.34;100807.50;2084276;28;47804;-49
2021/10/20 00:49:28;;;;;;;;;9.67;9.67;;;;;20.33;54.03;100804.81;2083942;28;47384;-49
2021/10/20 00:50:29;;;;;;;;;11.00;11.00;;;;;20.31;53.95;100802.22;2084320;28;47421;-50
2021/10/20 00:51:30;;;;;;;;;13.33;11.33;;;;;20.32;54.33;100800.38;2079724;28;47067;-48
2021/10/20 00:52:30;;;;;;;;;11.00;11.00;;;;;20.31;54.66;100798.66;2075491;28;47817;-52
2021/10/20 00:53:30;;;;;;;;;11.67;11.00;;;;;20.31;54.15;100793.28;2082998;28;47099;-49
2021/10/20 00:54:31;;;;;;;;;13.00;12.67;;;;;20.31;54.36;100794.13;2089598;28;46862;-49
2021/10/20 00:55:32;;;;;;;;;10.33;9.67;;;;;20.31;54.79;100794.13;2075248;28;47423;-48
2021/10/20 00:56:32;;;;;;;;;10.00;10.00;;;;;20.31;54.70;100791.44;2081784;28;47224;-47
2021/10/20 00:57:34;;;;;;;;;7.67;7.67;;;;;20.31;54.78;100790.56;2083411;28;47386;-50
2021/10/20 00:58:34;;;;;;;;;8.50;8.50;;;;;20.31;54.56;100787.88;2092728;28;47294;-48
2021/10/20 00:59:37;;;;;;;;;11.00;10.00;;;;;20.32;54.24;100795.00;2087356;28;48723;-48
2021/10/20 01:00:37;;;;;;;;;15.75;13.50;;;;;20.32;54.66;100786.91;2084204;28;47263;-51
2021/10/20 01:01:38;;;;;;;;;10.00;10.00;;;;;20.31;54.30;100793.28;2084005;28;47066;-49
2021/10/20 01:02:40;;;;;;;;;11.67;10.33;;;;;20.31;54.25;100794.13;2084138;28;47929;-52
2021/10/20 01:03:41;;;;;;;;;13.75;13.75;;;;;20.31;54.38;100794.13;2083915;28;45452;-48
2021/10/20 01:04:41;;;;;;;;;13.33;13.33;;;;;20.31;54.22;100786.06;2067067;28;46854;-48
2021/10/20 01:05:42;;;;;;;;;13.00;13.00;;;;;20.31;54.55;100785.19;2060332;28;46851;-49
2021/10/20 01:06:42;;;;;;;;;9.67;9.67;;;;;20.31;54.26;100777.09;2083828;28;45300;-49
2021/10/20 01:07:43;;;;;;;;;10.33;10.33;;;;;20.32;54.80;100786.91;2092094;28;47375;-47
2021/10/20 01:08:44;;;;;;;;;11.33;11.33;;;;;20.31;54.32;100783.34;2092132;28;47118;-49
2021/10/20 01:09:45;;;;;;;;;13.00;12.00;;;;;20.31;54.42;100782.50;2074881;28;48327;-46
2021/10/20 01:10:46;;;;;;;;;9.25;9.25;;;;;20.31;54.40;100779.78;2078485;28;47197;-49
2021/10/20 01:11:47;;;;;;;;;10.00;9.33;;;;;20.29;54.82;100775.38;2092213;28;47771;-48
2021/10/20 01:12:47;;;;;;;;;9.25;9.25;;;;;20.30;54.94;100781.63;2092525;28;47945;-46
2021/10/20 01:13:48;;;;;;;;;9.00;9.00;;;;;20.30;54.38;100781.63;2092052;28;48216;-48
2021/10/20 01:14:48;;;;;;;;;10.00;9.00;;;;;20.31;54.58;100787.88;2092262;28;48433;-48
2021/10/20 01:15:49;;;;;;;;;12.33;12.00;;;;;20.29;54.47;100787.97;2092080;28;47234;-49
2021/10/20 01:16:49;;;;;;;;;11.67;10.67;;;;;20.30;54.36;100781.63;2092356;28;47126;-47
2021/10/20 01:17:50;;;;;;;;;9.00;9.00;;;;;20.29;54.56;100785.28;2088270;28;47256;-49
2021/10/20 01:18:51;;;;;;;;;10.75;10.75;;;;;20.28;54.47;100779.03;2083644;28;47537;-49
2021/10/20 01:19:53;;;;;;;;;12.50;11.25;;;;;20.29;54.76;100777.19;2074955;28;47285;-50
2021/10/20 01:20:57;;;;;;;;;10.25;9.00;;;;;20.27;54.95;100776.44;2083670;28;47558;-48
2021/10/20 01:21:59;;;;;;;;;11.25;11.25;;;;;20.27;54.78;100768.34;2091275;28;47476;-50
2021/10/20 01:23:00;;;;;;;;;9.00;9.00;;;;;20.25;55.03;100763.06;2092226;28;47207;-48
2021/10/20 01:24:02;;;;;;;;;10.25;10.00;;;;;20.25;54.59;100768.44;2082956;28;47155;-50
2021/10/20 01:25:04;;;;;;;;;10.75;10.75;;;;;20.24;54.74;100766.72;2075013;28;46774;-50
2021/10/20 01:26:05;;;;;;;;;10.25;10.25;;;;;20.23;55.00;100770.38;2082392;28;47190;-50
2021/10/20 01:27:07;;;;;;;;;10.00;10.00;;;;;20.24;55.04;100763.16;2092031;28;47101;-47
2021/10/20 01:28:07;;;;;;;;;9.00;9.00;;;;;20.23;54.98;100761.41;2092307;28;47454;-49
2021/10/20 01:29:08;;;;;;;;;9.67;9.67;;;;;20.22;55.20;100759.69;2091833;28;46698;-48
2021/10/20 01:30:10;;;;;;;;;10.00;10.00;;;;;20.22;55.06;100751.59;2092140;28;48327;-52
2021/10/20 01:31:11;;;;;;;;;12.25;12.25;;;;;20.22;55.21;100759.69;2092008;28;46221;-50
2021/10/20 01:32:12;;;;;;;;;12.75;11.75;;;;;20.21;55.28;100752.56;2092350;28;47979;-48
2021/10/20 01:33:13;;;;;;;;;9.33;9.33;;;;;20.20;54.94;100749.00;2091898;28;48303;-45
2021/10/20 01:34:14;;;;;;;;;11.50;11.50;;;;;20.21;54.53;100755.25;2092340;28;47392;-48
2021/10/20 01:35:14;;;;;;;;;8.33;7.67;;;;;20.20;54.76;100746.31;2082949;28;46369;-50
2021/10/20 01:36:15;;;;;;;;;9.00;9.00;;;;;20.19;54.86;100749.06;2078774;28;48217;-50
2021/10/20 01:37:16;;;;;;;;;11.33;11.33;;;;;20.19;55.18;100743.69;2089021;28;48277;-50
2021/10/20 01:38:16;;;;;;;;;10.50;10.50;;;;;20.19;54.93;100746.38;2083385;28;47381;-50
2021/10/20 01:39:21;;;;;;;;;12.00;12.00;;;;;20.18;54.98;100745.50;2082844;28;47493;-51
2021/10/20 01:40:21;;;;;;;;;11.00;11.00;;;;;20.18;54.95;100744.63;2092333;28;47454;-50
2021/10/20 01:41:22;;;;;;;;;9.33;8.00;;;;;20.17;55.40;100746.47;2089027;28;47209;-50
2021/10/20 01:42:24;;;;;;;;;12.33;10.00;;;;;20.15;54.91;100745.69;2093035;28;47965;-49
2021/10/20 01:43:39;;;;;;;;;10.00;10.00;;;;;20.14;55.06;100745.81;2096394;28;47572;-50
2021/10/20 01:44:40;;;;;;;;;9.00;9.00;;;;;20.13;55.10;100747.63;2084768;28;45515;-47
2021/10/20 01:45:40;;;;;;;;;14.00;12.33;;;;;20.12;55.00;100745.91;2090042;28;47348;-49
2021/10/20 01:46:41;;;;;;;;;11.00;11.00;;;;;20.12;55.41;100740.50;2089142;28;45390;-47
2021/10/20 01:47:42;;;;;;;;;10.33;10.33;;;;;20.11;55.29;100744.16;2091107;28;47357;-46
2021/10/20 01:48:42;;;;;;;;;9.00;8.67;;;;;20.11;55.42;100741.47;2092361;28;47389;-47
2021/10/20 01:49:43;;;;;;;;;10.00;10.00;;;;;20.11;55.16;100737.91;2091988;28;47055;-49
2021/10/20 01:50:44;;;;;;;;;10.00;10.00;;;;;20.11;55.29;100740.59;2083289;28;47273;-48
2021/10/20 01:51:44;;;;;;;;;11.00;11.00;;;;;20.10;55.39;100739.75;2082919;28;47441;-46
2021/10/20 01:52:45;;;;;;;;;9.00;9.00;;;;;20.11;55.48;100729.81;2092170;28;47989;-46
2021/10/20 01:53:45;;;;;;;;;9.67;9.67;;;;;20.09;55.53;100729.06;2091667;28;45345;-49
2021/10/20 01:54:46;;;;;;;;;11.33;11.33;;;;;20.08;55.34;100724.63;2092026;28;47298;-51
2021/10/20 01:55:46;;;;;;;;;14.67;13.00;;;;;20.08;55.54;100727.31;2082969;28;47053;-48
2021/10/20 01:56:47;;;;;;;;;10.33;10.33;;;;;20.07;55.47;100723.75;2082293;28;46246;-47
2021/10/20 01:57:48;;;;;;;;;13.00;13.00;;;;;20.09;55.71;100710.19;2091789;28;48010;-48
2021/10/20 01:58:49;;;;;;;;;11.67;10.67;;;;;20.07;55.40;100715.66;2083275;28;47140;-49
2021/10/20 01:59:49;;;;;;;;;11.25;11.25;;;;;20.07;55.70;100710.28;2074600;28;46530;-48
2021/10/20 02:00:50;;;;;;;;;11.67;11.33;;;;;20.07;55.87;100706.72;2076293;28;47036;-49
2021/10/20 02:01:50;;;;;;;;;9.00;9.00;;;;;20.06;55.80;100711.22;2091815;28;47336;-48
2021/10/20 02:02:51;;;;;;;;;11.00;11.00;;;;;20.06;56.01;100705.84;2092154;28;45307;-48
2021/10/20 02:03:51;;;;;;;;;9.33;9.33;;;;;20.06;55.69;100697.75;2091790;28;47159;-50
2021/10/20 02:04:52;;;;;;;;;9.50;9.00;;;;;20.06;55.88;100697.75;2083252;28;48006;-49
2021/10/20 02:05:55;;;;;;;;;10.33;8.67;;;;;20.06;55.75;100697.75;2074726;28;46765;-50
2021/10/20 02:06:56;;;;;;;;;12.00;10.00;;;;;20.05;55.81;100690.66;2081393;28;47549;-48
2021/10/20 02:07:56;;;;;;;;;11.75;11.25;;;;;20.07;55.86;100687.84;2091780;28;48256;-47
2021/10/20 02:08:56;;;;;;;;;10.33;10.33;;;;;20.05;55.59;100698.72;2091844;28;47230;-51
2021/10/20 02:09:57;;;;;;;;;11.25;9.75;;;;;20.06;55.86;100689.69;2091683;28;47516;-51
2021/10/20 02:10:58;;;;;;;;;10.00;10.00;;;;;20.05;55.76;100690.66;2091769;28;47271;-49
2021/10/20 02:11:58;;;;;;;;;10.75;10.75;;;;;20.04;56.04;100694.31;2082115;28;48246;-51
2021/10/20 02:12:59;;;;;;;;;12.67;11.67;;;;;20.05;55.93;100690.66;2082182;28;47191;-48
2021/10/20 02:14:00;;;;;;;;;12.00;11.33;;;;;20.05;55.65;100690.66;2091956;28;47823;-49
2021/10/20 02:15:01;;;;;;;;;14.25;12.00;;;;;20.04;55.88;100691.59;2091960;28;45319;-47
2021/10/20 02:16:03;;;;;;;;;13.67;13.00;;;;;20.03;56.12;100681.78;2092003;28;47229;-49
2021/10/20 02:17:05;;;;;;;;;12.00;11.75;;;;;20.04;56.04;100671.88;2082992;28;48191;-49
2021/10/20 02:18:05;;;;;;;;;11.50;11.50;;;;;20.03;56.11;100676.41;2079354;28;47488;-49
2021/10/20 02:19:06;;;;;;;;;11.00;11.00;;;;;20.04;56.20;100679.97;2082830;28;48113;-48
2021/10/20 02:20:10;;;;;;;;;12.00;10.33;;;;;20.04;55.98;100666.50;2092032;28;47182;-49
2021/10/20 02:21:10;;;;;;;;;13.00;12.50;;;;;20.02;56.22;100669.28;2091612;28;48220;-47
2021/10/20 02:22:11;;;;;;;;;12.25;12.25;;;;;20.04;56.22;100671.88;2082997;28;48040;-50
2021/10/20 02:23:12;;;;;;;;;12.50;11.75;;;;;20.03;56.22;100675.53;2082700;28;46396;-48
2021/10/20 02:24:12;;;;;;;;;12.80;11.80;;;;;20.03;55.82;100668.31;2091813;28;48247;-50
2021/10/20 02:25:13;;;;;;;;;12.00;12.00;;;;;20.03;56.01;100664.75;2082640;28;47885;-49
2021/10/20 02:26:14;;;;;;;;;11.25;11.25;;;;;20.03;56.34;100672.84;2083186;28;47216;-50
2021/10/20 02:27:14;;;;;;;;;10.33;9.67;;;;;20.02;56.27;100663.91;2091778;28;47267;-50
2021/10/20 02:28:15;;;;;;;;;11.00;11.00;;;;;20.02;55.93;100669.28;2091861;28;47348;-47
2021/10/20 02:29:15;;;;;;;;;12.00;12.00;;;;;20.03;56.57;100654.00;2091550;28;47039;-49
2021/10/20 02:30:16;;;;;;;;;10.00;10.00;;;;;20.01;56.05;100664.88;2091857;28;48252;-50
2021/10/20 02:31:17;;;;;;;;;10.67;10.33;;;;;20.02;56.36;100666.59;2082731;28;46706;-49
2021/10/20 02:32:17;;;;;;;;;12.00;11.75;;;;;20.02;56.22;100663.91;2082987;28;48447;-48
2021/10/20 02:33:18;;;;;;;;;11.33;11.33;;;;;20.01;56.55;100664.88;2082830;28;47454;-47
2021/10/20 02:34:21;;;;;;;;;12.33;11.33;;;;;20.01;56.37;100666.69;2083136;28;46052;-52
2021/10/20 02:35:21;;;;;;;;;12.75;12.75;;;;;19.99;56.67;100646.09;2087452;28;48424;-50
2021/10/20 02:36:22;;;;;;;;;11.33;9.67;;;;;19.99;56.28;100646.09;2084353;28;47203;-51
2021/10/20 02:37:22;;;;;;;;;13.00;13.00;;;;;19.99;56.42;100640.72;2081416;28;47590;-47
2021/10/20 02:38:23;;;;;;;;;12.75;12.75;;;;;19.99;56.74;100637.16;2076907;28;46629;-48
2021/10/20 02:39:23;;;;;;;;;11.50;11.00;;;;;20.00;56.66;100633.50;2082683;28;47104;-50
2021/10/20 02:40:24;;;;;;;;;14.00;13.50;;;;;20.01;56.52;100634.38;2091865;28;47504;-47
2021/10/20 02:41:24;;;;;;;;;12.50;12.25;;;;;19.99;56.48;100635.34;2088902;28;47042;-47
2021/10/20 02:42:25;;;;;;;;;13.00;13.00;;;;;19.99;56.61;100629.06;2092862;28;47034;-49
2021/10/20 02:43:25;;;;;;;;;10.75;10.75;;;;;19.99;56.75;100623.69;2095865;28;47229;-48
2021/10/20 02:44:26;;;;;;;;;12.00;12.00;;;;;19.99;56.86;100635.34;2091659;28;47956;-49
2021/10/20 02:45:26;;;;;;;;;12.00;12.00;;;;;19.99;56.80;100629.06;2091275;28;46248;-47
2021/10/20 02:46:27;;;;;;;;;12.00;11.50;;;;;19.99;56.85;100632.63;2079966;28;48499;-47
2021/10/20 02:47:27;;;;;;;;;12.25;12.25;;;;;19.99;56.49;100627.25;2079859;28;48426;-48
2021/10/20 02:48:28;;;;;;;;;10.50;10.50;;;;;19.99;56.49;100624.56;2082756;28;48232;-50
2021/10/20 02:49:29;;;;;;;;;13.40;13.40;;;;;20.01;56.68;100632.53;2083017;28;45789;-49
2021/10/20 02:50:29;;;;;;;;;12.00;11.50;;;;;20.00;56.35;100625.41;2082605;28;48468;-49
2021/10/20 02:51:30;;;;;;;;;9.75;9.75;;;;;19.98;56.41;100617.44;2091756;28;47129;-51
2021/10/20 02:52:31;;;;;;;;;12.00;11.50;;;;;19.99;56.47;100612.91;2091798;28;47473;-51
2021/10/20 02:53:31;;;;;;;;;12.50;11.25;;;;;19.98;56.55;100613.88;2087855;28;46844;-54
2021/10/20 02:54:31;;;;;;;;;13.00;12.00;;;;;19.97;56.43;100614.84;2085428;28;46259;-48
2021/10/20 02:55:32;;;;;;;;;12.50;12.50;;;;;19.97;56.82;100612.16;2088918;28;47300;-50
2021/10/20 02:56:33;;;;;;;;;12.25;12.25;;;;;19.95;56.74;100603.31;2091497;28;45434;-51
2021/10/20 02:57:34;;;;;;;;;12.00;12.00;;;;;19.96;56.57;100608.59;2089474;28;48401;-49
2021/10/20 02:58:34;;;;;;;;;12.00;10.40;;;;;19.95;57.03;100609.56;2090101;28;47229;-48
2021/10/20 02:59:35;;;;;;;;;12.50;12.25;;;;;19.94;56.88;100610.50;2082981;28;48292;-50
2021/10/20 03:00:35;;;;;;;;;13.00;12.50;;;;;19.95;56.51;100616.78;2083147;28;48028;-48
2021/10/20 03:01:36;;;;;;;;;12.50;11.75;;;;;19.94;56.42;100607.78;2083415;28;47378;-50
2021/10/20 03:02:36;;;;;;;;;11.50;11.00;;;;;19.94;56.72;100610.50;2083336;28;47579;-51
2021/10/20 03:03:37;;;;;;;;;13.00;13.00;;;;;19.93;56.69;100603.38;2087473;28;46400;-52
2021/10/20 03:04:37;;;;;;;;;12.75;12.00;;;;;19.92;56.88;100600.78;2082808;28;47726;-51
2021/10/20 03:05:37;;;;;;;;;11.00;11.00;;;;;19.92;56.80;100598.94;2082898;28;47963;-47
2021/10/20 03:06:38;;;;;;;;;14.00;12.00;;;;;19.91;56.63;100596.34;2083267;28;45964;-50
2021/10/20 03:07:38;;;;;;;;;11.50;11.50;;;;;19.90;56.60;100603.56;2082568;28;47175;-49
2021/10/20 03:08:39;;;;;;;;;10.50;9.50;;;;;19.91;56.68;100612.50;2082258;28;47326;-51
2021/10/20 03:09:39;;;;;;;;;16.75;14.00;;;;;19.90;56.44;100610.78;2083378;28;48352;-50
2021/10/20 03:10:40;;;;;;;;;12.75;10.75;;;;;19.88;57.00;100610.03;2083269;28;47031;-47
2021/10/20 03:11:40;;;;;;;;;12.50;12.50;;;;;19.87;56.70;100606.47;2082666;28;47867;-48
2021/10/20 03:12:41;;;;;;;;;15.25;14.00;;;;;19.86;56.57;100617.34;2083006;28;45957;-51
2021/10/20 03:13:42;;;;;;;;;11.60;11.60;;;;;19.85;56.72;100621.00;2070058;28;48614;-50
2021/10/20 03:14:42;;;;;;;;;12.75;12.75;;;;;19.85;57.06;100618.28;2067698;28;46977;-50
2021/10/20 03:15:43;;;;;;;;;13.00;12.25;;;;;19.83;56.78;100610.31;2091511;28;47330;-47
2021/10/20 03:16:43;;;;;;;;;13.25;11.50;;;;;19.82;56.75;100613.06;2078212;28;46990;-48
2021/10/20 03:17:44;;;;;;;;;12.00;12.00;;;;;19.81;56.67;100620.28;2077748;28;47230;-45
2021/10/20 03:18:44;;;;;;;;;12.00;11.25;;;;;19.80;57.20;100613.16;2083869;28;47268;-47
2021/10/20 03:19:45;;;;;;;;;11.00;11.00;;;;;19.81;56.76;100624.81;2083106;28;46468;-49
2021/10/20 03:20:45;;;;;;;;;15.25;14.75;;;;;19.81;56.84;100622.13;2083461;28;47383;-49
2021/10/20 03:21:46;;;;;;;;;14.75;11.25;;;;;19.79;57.08;100626.72;2082998;28;47975;-49
2021/10/20 03:22:46;;;;;;;;;13.00;11.75;;;;;19.78;56.84;100631.25;2089499;28;46007;-50
2021/10/20 03:23:47;;;;;;;;;13.25;12.75;;;;;19.77;56.93;100629.53;2082953;28;47386;-47
2021/10/20 03:24:47;;;;;;;;;14.00;12.75;;;;;19.76;57.02;100625.09;2083391;28;46825;-49
2021/10/20 03:25:47;;;;;;;;;13.25;13.25;;;;;19.76;57.26;100632.31;2082944;28;46959;-47
2021/10/20 03:26:48;;;;;;;;;15.50;14.25;;;;;19.75;57.08;100639.53;2083236;28;47328;-48
2021/10/20 03:27:51;;;;;;;;;11.25;10.50;;;;;19.75;57.14;100639.53;2076813;28;47417;-46
2021/10/20 03:28:51;;;;;;;;;14.00;14.00;;;;;19.75;57.21;100638.66;2083030;28;48108;-47
2021/10/20 03:29:51;;;;;;;;;12.75;12.75;;;;;19.75;57.29;100638.66;2082343;28;46355;-49
2021/10/20 03:30:52;;;;;;;;;11.50;11.50;;;;;19.73;57.12;100638.75;2082652;28;47909;-46
2021/10/20 03:31:52;;;;;;;;;13.75;13.50;;;;;19.74;56.91;100639.63;2091320;28;47075;-50
2021/10/20 03:32:53;;;;;;;;;10.25;10.25;;;;;19.72;57.44;100639.72;2086778;28;47280;-47
2021/10/20 03:33:54;;;;;;;;;9.75;9.75;;;;;19.72;57.22;100634.34;2082885;28;47338;-48
2021/10/20 03:34:54;;;;;;;;;14.75;13.50;;;;;19.72;57.06;100628.97;2083264;28;47349;-47
2021/10/20 03:35:55;;;;;;;;;12.50;12.50;;;;;19.71;57.16;100616.44;2087706;28;45452;-46
2021/10/20 03:36:55;;;;;;;;;14.00;13.00;;;;;19.71;56.98;100619.16;2091670;28;47036;-49
2021/10/20 03:37:55;;;;;;;;;12.50;12.00;;;;;19.72;57.37;100620.00;2090911;28;48196;-48
2021/10/20 03:38:56;;;;;;;;;13.25;13.25;;;;;19.72;57.57;100606.56;2091113;28;48199;-47
2021/10/20 03:39:56;;;;;;;;;10.50;10.50;;;;;19.69;57.53;100603.09;2091360;28;47236;-46
2021/10/20 03:40:57;;;;;;;;;11.50;11.50;;;;;19.69;57.28;100613.84;2091354;28;47056;-48
2021/10/20 03:41:57;;;;;;;;;12.75;12.75;;;;;19.68;57.04;100609.41;2084455;28;48397;-47
2021/10/20 03:42:58;;;;;;;;;12.25;12.25;;;;;19.68;56.97;100609.41;2097320;28;47113;-48
2021/10/20 03:43:58;;;;;;;;;12.25;12.25;;;;;19.67;57.12;100607.69;2086059;28;46175;-48
2021/10/20 03:44:59;;;;;;;;;10.75;10.75;;;;;19.67;57.43;100607.69;2082529;28;46784;-48
2021/10/20 03:45:59;;;;;;;;;11.00;11.00;;;;;19.67;57.54;100604.97;2088590;28;47531;-48
2021/10/20 03:47:00;;;;;;;;;12.50;12.50;;;;;19.66;57.49;100607.78;2091238;28;47439;-47
2021/10/20 03:48:00;;;;;;;;;9.50;9.00;;;;;19.65;57.21;100606.91;2091483;28;46085;-50
2021/10/20 03:49:00;;;;;;;;;14.00;13.25;;;;;19.65;57.20;100601.53;2091471;28;45337;-46
2021/10/20 03:50:02;;;;;;;;;14.50;12.50;;;;;19.66;57.49;100610.47;2091326;28;47547;-47
2021/10/20 03:51:03;;;;;;;;;13.20;12.80;;;;;19.66;57.38;100605.09;2091480;28;47330;-46
2021/10/20 03:52:04;;;;;;;;;13.80;13.80;;;;;19.66;57.37;100622.09;2091301;28;47345;-46
2021/10/20 03:53:04;;;;;;;;;13.00;13.00;;;;;19.65;57.29;100609.59;2091445;28;46991;-47
2021/10/20 03:54:05;;;;;;;;;10.50;10.50;;;;;19.64;57.48;100607.88;2091256;28;46798;-48
2021/10/20 03:55:06;;;;;;;;;11.75;11.75;;;;;19.64;57.40;100597.09;2091027;28;48327;-47
2021/10/20 03:56:06;;;;;;;;;12.80;12.80;;;;;19.65;57.73;100596.13;2082556;28;47869;-48
2021/10/20 03:57:08;;;;;;;;;12.50;12.50;;;;;19.64;57.62;100596.25;2082082;28;46225;-48
2021/10/20 03:58:08;;;;;;;;;12.00;11.00;;;;;19.64;57.24;100605.19;2091328;28;47684;-48
2021/10/20 03:59:09;;;;;;;;;10.25;10.25;;;;;19.64;57.71;100599.78;2091231;28;47069;-47
2021/10/20 04:00:12;;;;;;;;;11.00;10.75;;;;;19.63;57.24;100605.28;2090608;28;46699;-51
2021/10/20 04:01:12;;;;;;;;;12.00;11.80;;;;;19.62;57.50;100603.53;2085660;28;47460;-48
2021/10/20 04:02:13;;;;;;;;;11.50;11.50;;;;;19.62;57.45;100611.63;2081621;28;47777;-50
2021/10/20 04:03:14;;;;;;;;;10.20;9.60;;;;;19.61;57.62;100610.75;2081069;28;47271;-51
2021/10/20 04:04:14;;;;;;;;;12.50;10.50;;;;;19.62;57.42;100606.25;2090211;28;45870;-50
2021/10/20 04:05:17;;;;;;;;;14.00;13.00;;;;;19.62;57.87;100615.19;2090009;28;47277;-47
2021/10/20 04:06:18;;;;;;;;;11.40;11.40;;;;;19.62;57.70;100612.50;2090442;28;48376;-52
2021/10/20 04:07:18;;;;;;;;;14.75;14.25;;;;;19.63;57.74;100607.97;2090251;28;46162;-45
2021/10/20 04:08:19;;;;;;;;;13.75;12.00;;;;;19.64;57.64;100604.31;2090835;28;48115;-48
2021/10/20 04:09:19;;;;;;;;;11.25;11.25;;;;;19.64;57.45;100607.88;2082046;28;47227;-50
2021/10/20 04:10:23;;;;;;;;;13.25;13.00;;;;;19.65;57.91;100603.34;2082450;28;47442;-50
2021/10/20 04:11:24;;;;;;;;;11.40;11.40;;;;;19.64;57.62;100589.03;2090288;28;47190;-49
2021/10/20 04:12:24;;;;;;;;;15.00;14.50;;;;;19.64;57.67;100574.69;2085434;28;47283;-49
2021/10/20 04:13:24;;;;;;;;;12.25;11.00;;;;;19.65;57.46;100571.03;2085556;28;45625;-51
2021/10/20 04:14:25;;;;;;;;;11.00;11.00;;;;;19.63;57.71;100567.59;2090599;28;48628;-47
2021/10/20 04:15:26;;;;;;;;;7.67;7.67;;;;;19.62;57.57;100563.16;2083095;28;47151;-50
2021/10/20 04:16:27;;;;;;;;;13.00;11.60;;;;;19.62;57.85;100555.09;2082886;28;48740;-48
2021/10/20 04:17:27;;;;;;;;;13.75;12.25;;;;;19.62;57.78;100564.03;2082822;28;45383;-50
2021/10/20 04:18:27;;;;;;;;;13.25;12.75;;;;;19.62;57.69;100555.94;2082893;28;48261;-48
2021/10/20 04:19:28;;;;;;;;;13.33;13.00;;;;;19.62;57.52;100563.16;2076240;28;48308;-48
2021/10/20 04:20:28;;;;;;;;;11.50;11.50;;;;;19.62;57.62;100555.94;2083419;28;47468;-47
2021/10/20 04:21:29;;;;;;;;;14.50;13.00;;;;;19.63;57.90;100559.50;2087190;28;45288;-47
2021/10/20 04:22:30;;;;;;;;;12.75;12.25;;;;;19.64;57.59;100569.31;2088723;28;47282;-52
2021/10/20 04:23:30;;;;;;;;;13.50;12.75;;;;;19.63;57.29;100568.44;2084129;28;48166;-51
2021/10/20 04:24:30;;;;;;;;;11.33;10.33;;;;;19.64;57.53;100553.16;2084316;28;47959;-48
2021/10/20 04:25:31;;;;;;;;;12.33;12.33;;;;;19.64;57.77;100550.47;2075581;28;47561;-48
2021/10/20 04:26:31;;;;;;;;;12.75;12.50;;;;;19.63;57.62;100563.06;2082263;28;48506;-47
2021/10/20 04:27:32;;;;;;;;;13.75;13.75;;;;;19.65;57.52;100560.28;2083724;28;47142;-50
2021/10/20 04:28:33;;;;;;;;;13.75;13.75;;;;;19.64;57.93;100561.25;2083686;28;46784;-49
2021/10/20 04:29:33;;;;;;;;;13.75;13.75;;;;;19.63;57.71;100557.69;2083673;28;46327;-49
2021/10/20 04:30:34;;;;;;;;;15.25;14.75;;;;;19.62;57.48;100569.41;2092342;28;47342;-48
2021/10/20 04:31:34;;;;;;;;;11.00;11.00;;;;;19.62;57.61;100573.94;2084164;28;48103;-46
2021/10/20 04:32:35;;;;;;;;;12.00;11.00;;;;;19.60;57.66;100557.88;2078979;28;47106;-49
2021/10/20 04:33:35;;;;;;;;;13.00;13.00;;;;;19.59;57.33;100561.53;2083693;28;47900;-46
2021/10/20 04:34:35;;;;;;;;;13.75;13.75;;;;;19.59;57.74;100557.97;2085471;28;47277;-50
2021/10/20 04:35:36;;;;;;;;;12.00;12.00;;;;;19.59;57.71;100552.59;2084955;28;46976;-50
2021/10/20 04:36:36;;;;;;;;;10.00;10.00;;;;;19.58;57.46;100556.25;2084259;28;47169;-50
2021/10/20 04:37:38;;;;;;;;;12.25;12.25;;;;;19.58;57.57;100550.88;2084114;28;47212;-48